Terminal Aerodrome Forecast
Issued by NWS Grand Rapids, MI

Home | Current Version | Previous Version | Text Only | Print | Product List | Glossary On
Versions: 1 2 3 4 5 6 7 8 9 10 11 12 13 14 15 16 17 18 19 20 21 22 23 24
000
FTUS43 KGRR 011500 AAB
TAFGRR
TAF AMD
KGRR 011538Z 0116/0212 16005KT P6SM BKN011 OVC026
     FM011800 15008KT P6SM BKN025
     FM012300 14006KT P6SM BKN250
     FM020900 12007KT P6SM VCSH OVC050=

USA.gov is the U.S. government's official web portal to all federal, state and local government web resources and services.